createdAt,value
2019-03-02T00:02:08.727Z,96.49
2019-03-02T00:04:41.980Z,96.25
2019-03-02T00:07:12.540Z,97.05
2019-03-02T00:09:43.674Z,97.76
2019-03-02T00:12:14.720Z,97.55
2019-03-02T00:14:46.071Z,97.32
2019-03-02T00:17:19.038Z,96.97
2019-03-02T00:19:49.443Z,97.64
2019-03-02T00:22:20.243Z,97.06
2019-03-02T00:24:54.049Z,97.35
2019-03-02T00:27:24.566Z,97.21
2019-03-02T00:29:55.373Z,99.02
2019-03-02T00:32:26.173Z,98.16
2019-03-02T00:34:57.064Z,98.44
2019-03-02T00:37:29.587Z,98.29
2019-03-02T00:40:01.012Z,98.38
2019-03-02T00:42:31.896Z,98.35
2019-03-02T00:45:03.253Z,98.68
2019-03-02T00:47:35.268Z,98.90
2019-03-02T00:50:07.089Z,98.95
2019-03-02T00:52:37.902Z,99.71
2019-03-02T00:55:08.923Z,99.18
2019-03-02T00:57:39.791Z,99.00
2019-03-02T01:00:11.691Z,99.42
2019-03-02T01:02:43.793Z,98.98
2019-03-02T01:05:14.871Z,99.13
2019-03-02T01:07:45.787Z,99.62
2019-03-02T01:10:19.011Z,99.03
2019-03-02T01:12:49.760Z,99.31
2019-03-02T01:15:20.663Z,99.15
2019-03-02T01:17:51.530Z,98.92
2019-03-02T01:20:24.867Z,99.05
2019-03-02T01:22:55.078Z,99.27
2019-03-02T01:25:26.203Z,98.16
2019-03-02T01:27:57.327Z,97.96
2019-03-02T01:30:30.056Z,97.81
2019-03-02T01:33:01.091Z,97.53
2019-03-02T01:35:32.113Z,97.36
2019-03-02T01:38:03.056Z,97.48
2019-03-02T01:40:37.847Z,97.07
2019-03-02T01:43:08.116Z,97.13
2019-03-02T01:45:39.148Z,97.67
2019-03-02T01:48:10.240Z,97.12
2019-03-02T01:50:43.793Z,96.43
2019-03-02T01:53:13.621Z,97.20
2019-03-02T01:55:44.744Z,95.83
2019-03-02T01:58:15.867Z,95.42
2019-03-02T02:00:49.221Z,94.98
2019-03-02T02:03:19.725Z,94.97
2019-03-02T02:05:50.624Z,94.91
2019-03-02T02:08:21.973Z,95.03
2019-03-02T02:10:52.971Z,95.27
2019-03-02T02:13:23.853Z,96.07
2019-03-02T02:15:54.764Z,95.67
2019-03-02T02:18:27.802Z,95.86
2019-03-02T02:20:58.741Z,95.61
2019-03-02T02:23:29.545Z,95.39
2019-03-02T02:26:00.433Z,94.75
2019-03-02T02:28:32.259Z,95.59
2019-03-02T02:31:06.191Z,95.87
2019-03-02T02:33:42.246Z,95.98
2019-03-02T02:36:14.203Z,96.13
2019-03-02T02:38:42.604Z,96.17
2019-03-02T02:41:22.094Z,95.91
2019-03-02T02:43:46.375Z,96.98
2019-03-02T02:46:17.540Z,96.51
2019-03-02T02:48:48.349Z,97.57
2019-03-02T02:51:19.457Z,97.27
2019-03-02T02:53:50.563Z,96.07
2019-03-02T02:56:21.612Z,94.87
2019-03-02T02:58:56.203Z,94.43
2019-03-02T03:01:32.980Z,95.18
2019-03-02T03:04:00.766Z,94.99
2019-03-02T03:06:34.036Z,94.54
2019-03-02T03:09:11.637Z,94.62
2019-03-02T03:11:44.393Z,95.62
2019-03-02T03:14:19.862Z,97.00
2019-03-02T03:16:53.747Z,97.44
2019-03-02T03:19:26.086Z,97.45
2019-03-02T03:21:55.662Z,97.69
2019-03-02T03:24:26.464Z,97.59
2019-03-02T03:26:57.930Z,97.57
2019-03-02T03:29:29.309Z,97.54
2019-03-02T03:32:08.239Z,96.54
2019-03-02T03:34:33.345Z,96.78
2019-03-02T03:37:08.419Z,96.84
2019-03-02T03:39:36.859Z,96.37
2019-03-02T03:42:07.791Z,94.52
2019-03-02T03:44:38.679Z,94.57
2019-03-02T03:47:11.596Z,94.69
2019-03-02T03:49:43.125Z,95.33
2019-03-02T03:52:14.322Z,95.39
2019-03-02T03:54:46.408Z,95.31
2019-03-02T03:57:21.619Z,94.93
2019-03-02T03:59:53.619Z,95.06
2019-03-02T04:02:26.074Z,94.66
2019-03-02T04:04:56.807Z,94.33
2019-03-02T04:07:27.764Z,95.27
2019-03-02T04:09:58.601Z,94.93
2019-03-02T04:12:29.713Z,94.60
2019-03-02T04:15:01.563Z,94.43
2019-03-02T04:17:39.151Z,94.36
2019-03-02T04:20:12.586Z,94.86
2019-03-02T04:22:44.615Z,94.98
2019-03-02T04:25:17.836Z,96.33
2019-03-02T04:27:54.039Z,95.00
2019-03-02T04:30:21.415Z,94.80
2019-03-02T04:32:52.682Z,94.88
2019-03-02T04:35:23.479Z,96.05
2019-03-02T04:37:56.550Z,96.38
2019-03-02T04:40:27.866Z,96.85
2019-03-02T04:42:59.783Z,96.73
2019-03-02T04:45:30.805Z,97.00
2019-03-02T04:48:03.302Z,95.32
2019-03-02T04:50:34.320Z,94.27
2019-03-02T04:53:05.145Z,95.30
2019-03-02T04:55:36.742Z,96.26
2019-03-02T04:58:08.565Z,95.75
2019-03-02T05:00:40.477Z,95.38
2019-03-02T05:03:11.680Z,94.38
2019-03-02T05:05:43.425Z,92.73
2019-03-02T05:08:14.566Z,93.32
2019-03-02T05:10:45.358Z,94.39
2019-03-02T05:13:16.216Z,92.55
2019-03-02T05:15:48.990Z,93.00
2019-03-02T05:18:19.790Z,92.15
2019-03-02T05:20:50.712Z,93.36
2019-03-02T05:23:22.009Z,92.92
2019-03-02T05:25:54.598Z,91.56
2019-03-02T05:28:33.890Z,89.75
2019-03-02T05:31:06.850Z,89.70
2019-03-02T05:33:38.330Z,90.39
2019-03-02T05:36:09.204Z,90.05
2019-03-02T05:38:40.020Z,91.25
2019-03-02T05:41:11.200Z,91.36
2019-03-02T05:43:42.088Z,92.06
2019-03-02T05:46:14.237Z,91.57
2019-03-02T05:48:45.613Z,92.60
2019-03-02T05:51:16.490Z,92.45
2019-03-02T05:53:47.587Z,92.45
2019-03-02T05:56:18.396Z,92.27
2019-03-02T05:58:51.111Z,93.14
2019-03-02T06:01:22.354Z,92.76
2019-03-02T06:03:53.183Z,92.30
2019-03-02T06:06:24.855Z,92.45
2019-03-02T06:08:55.671Z,92.44
2019-03-02T06:11:26.465Z,92.74
2019-03-02T06:13:57.728Z,93.10
2019-03-02T06:16:28.733Z,93.53
2019-03-02T06:18:59.855Z,92.73
2019-03-02T06:21:31.210Z,91.09
2019-03-02T06:24:05.395Z,92.34
2019-03-02T06:26:36.617Z,92.24
2019-03-02T06:29:07.649Z,91.82
2019-03-02T06:31:38.448Z,92.65
2019-03-02T06:34:09.663Z,91.68
2019-03-02T06:36:44.367Z,91.67
2019-03-02T06:39:13.829Z,91.11
2019-03-02T06:41:44.934Z,91.17
2019-03-02T06:44:16.142Z,91.17
2019-03-02T06:46:46.939Z,91.49
2019-03-02T06:49:19.984Z,90.62
2019-03-02T06:51:51.091Z,90.66
2019-03-02T06:54:22.264Z,90.60
2019-03-02T06:56:57.830Z,90.56
2019-03-02T06:59:26.115Z,90.98
2019-03-02T07:01:59.750Z,90.52
2019-03-02T07:04:30.948Z,91.35
2019-03-02T07:07:01.866Z,90.45
2019-03-02T07:09:32.685Z,90.91
2019-03-02T07:12:05.958Z,90.47
2019-03-02T07:14:36.317Z,90.15
2019-03-02T07:17:07.683Z,90.17
2019-03-02T07:19:52.005Z,90.21
2019-03-02T07:22:23.640Z,90.82
2019-03-02T07:24:54.681Z,91.39
2019-03-02T07:27:26.393Z,90.47
2019-03-02T07:29:58.556Z,90.83
2019-03-02T07:32:29.478Z,90.07
2019-03-02T07:35:00.812Z,91.74
2019-03-02T07:37:32.065Z,90.43
2019-03-02T07:40:05.644Z,91.77
2019-03-02T07:42:35.520Z,91.97
2019-03-02T07:45:07.739Z,92.08
2019-03-02T07:47:38.896Z,91.33
2019-03-02T07:50:10.167Z,92.19
2019-03-02T07:52:42.282Z,91.14
2019-03-02T07:55:14.646Z,91.70
2019-03-02T07:57:45.929Z,92.92
2019-03-02T08:00:18.707Z,93.07
2019-03-02T08:02:49.910Z,92.91
2019-03-02T08:05:20.889Z,92.38
2019-03-02T08:07:51.787Z,92.17
2019-03-02T08:10:23.959Z,92.11
2019-03-02T08:12:57.795Z,92.20
2019-03-02T08:15:27.679Z,91.95
2019-03-02T08:17:58.725Z,91.72
2019-03-02T08:20:29.896Z,92.02
2019-03-02T08:23:01.035Z,92.51
2019-03-02T08:25:32.058Z,91.65
2019-03-02T08:28:02.890Z,92.91
2019-03-02T08:30:34.309Z,91.85
2019-03-02T08:33:05.248Z,91.47
2019-03-02T08:35:36.047Z,91.50
2019-03-02T08:38:06.943Z,91.64
2019-03-02T08:40:38.197Z,92.22
2019-03-02T08:43:09.108Z,91.66
2019-03-02T08:45:40.233Z,91.54
2019-03-02T08:48:11.363Z,91.12
2019-03-02T08:50:42.512Z,90.49
2019-03-02T08:53:13.800Z,91.23
2019-03-02T08:55:45.201Z,91.02
2019-03-02T08:58:16.521Z,92.21
2019-03-02T09:00:47.369Z,91.48
2019-03-02T09:03:18.270Z,91.20
2019-03-02T09:05:51.820Z,91.43
2019-03-02T09:08:22.180Z,90.99
2019-03-02T09:10:53.068Z,91.81
2019-03-02T09:13:24.389Z,91.23
2019-03-02T09:15:55.504Z,92.01
2019-03-02T09:18:30.732Z,92.42
2019-03-02T09:20:59.141Z,91.10
2019-03-02T09:23:32.797Z,90.78
2019-03-02T09:26:04.452Z,92.05
2019-03-02T09:28:35.667Z,91.06
2019-03-02T09:31:06.547Z,90.69
2019-03-02T09:33:37.472Z,90.42
2019-03-02T09:36:08.661Z,89.94
2019-03-02T09:38:39.648Z,91.03
2019-03-02T09:41:11.682Z,90.81
2019-03-02T09:43:42.746Z,90.52
2019-03-02T09:46:13.786Z,91.04
2019-03-02T09:48:44.917Z,90.72
2019-03-02T09:51:16.241Z,92.31
2019-03-02T09:53:47.063Z,91.57
2019-03-02T09:56:17.852Z,92.07
2019-03-02T09:58:49.053Z,91.15
2019-03-02T10:01:20.324Z,91.58
2019-03-02T10:03:52.298Z,91.97
2019-03-02T10:06:25.289Z,90.54
2019-03-02T10:08:56.019Z,90.89
2019-03-02T10:11:27.132Z,89.85
2019-03-02T10:13:58.181Z,90.64
2019-03-02T10:16:28.990Z,90.29
2019-03-02T10:18:59.983Z,89.80
2019-03-02T10:21:31.094Z,90.45
2019-03-02T10:24:03.200Z,90.42
2019-03-02T10:26:34.068Z,89.91
2019-03-02T10:29:06.820Z,90.47
2019-03-02T10:31:40.539Z,92.38
2019-03-02T10:34:10.508Z,91.09
2019-03-02T10:36:41.711Z,91.13
2019-03-02T10:39:12.600Z,90.90
2019-03-02T10:41:44.039Z,91.14
2019-03-02T10:44:17.816Z,90.75
2019-03-02T10:46:48.376Z,90.58
2019-03-02T10:49:19.831Z,90.88
2019-03-02T10:51:50.631Z,90.04
2019-03-02T10:54:22.954Z,89.55
2019-03-02T10:56:56.677Z,89.32
2019-03-02T10:59:26.567Z,89.63
2019-03-02T11:01:57.780Z,87.64
2019-03-02T11:04:46.379Z,87.65
2019-03-02T11:07:35.419Z,86.88
2019-03-02T11:10:18.123Z,85.14
2019-03-02T11:13:03.791Z,84.66
2019-03-02T11:15:56.625Z,85.41
2019-03-02T11:18:35.799Z,84.79
2019-03-02T11:21:26.349Z,84.32
2019-03-02T11:24:06.434Z,85.04
2019-03-02T11:26:45.060Z,84.12
2019-03-02T11:29:22.769Z,84.15
2019-03-02T11:32:21.768Z,83.56
2019-03-02T11:35:10.461Z,84.12
2019-03-02T11:37:53.951Z,84.89
2019-03-02T11:40:43.532Z,83.50
2019-03-02T11:43:34.265Z,82.69
2019-03-02T11:46:30.841Z,83.39
2019-03-02T11:49:30.148Z,82.31
2019-03-02T11:52:24.049Z,82.95
2019-03-02T11:55:15.380Z,83.72
2019-03-02T11:58:14.391Z,84.78
2019-03-02T12:01:04.354Z,85.04
2019-03-02T12:03:54.463Z,84.91
2019-03-02T12:06:44.034Z,86.09
2019-03-02T12:09:46.630Z,86.03
2019-03-02T12:12:36.677Z,83.14
2019-03-02T12:15:25.222Z,81.72
2019-03-02T12:18:07.484Z,80.82
2019-03-02T12:21:12.813Z,81.42
2019-03-02T12:23:58.761Z,81.12
2019-03-02T12:26:46.343Z,82.04
2019-03-02T12:29:49.646Z,83.27
2019-03-02T12:32:44.352Z,82.89
2019-03-02T12:35:22.127Z,83.59
2019-03-02T12:38:15.041Z,83.80
2019-03-02T12:41:07.788Z,83.05
2019-03-02T12:43:46.224Z,83.35
2019-03-02T12:46:27.760Z,83.23
2019-03-02T12:49:15.831Z,82.30
2019-03-02T12:52:06.103Z,81.54
2019-03-02T12:54:48.023Z,80.65
2019-03-02T12:57:34.675Z,80.47
2019-03-02T13:00:25.344Z,80.26
2019-03-02T13:03:04.423Z,79.05
2019-03-02T13:05:47.459Z,78.24
2019-03-02T13:08:37.769Z,78.64
2019-03-02T13:11:28.925Z,79.02
2019-03-02T13:14:17.278Z,77.15
2019-03-02T13:17:04.625Z,78.73
2019-03-02T13:19:43.677Z,77.01
2019-03-02T13:22:21.025Z,78.24
2019-03-02T13:25:11.145Z,79.46
2019-03-02T13:27:50.308Z,80.17
2019-03-02T13:30:29.558Z,79.94
2019-03-02T13:33:19.295Z,80.85
2019-03-02T13:36:04.635Z,79.76
2019-03-02T13:38:57.369Z,79.18
2019-03-02T13:41:35.787Z,79.00
2019-03-02T13:44:31.701Z,77.33
2019-03-02T13:47:17.357Z,78.29
2019-03-02T13:50:09.993Z,77.42
2019-03-02T13:52:47.161Z,77.33
2019-03-02T13:55:45.931Z,77.78
2019-03-02T13:58:34.569Z,77.35
2019-03-02T14:01:29.404Z,77.95
2019-03-02T14:04:27.980Z,77.92
2019-03-02T14:07:16.588Z,78.93
2019-03-02T14:10:05.352Z,78.14
2019-03-02T14:13:13.460Z,79.19
2019-03-02T14:16:02.849Z,78.08
2019-03-02T14:18:51.109Z,78.28
2019-03-02T14:21:38.701Z,77.63
2019-03-02T14:24:24.136Z,76.28
2019-03-02T14:27:12.776Z,76.67
2019-03-02T14:29:52.658Z,76.76
2019-03-02T14:32:31.362Z,75.79
2019-03-02T14:35:11.734Z,75.90
2019-03-02T14:38:01.177Z,75.66
2019-03-02T14:40:54.087Z,76.56
2019-03-02T14:43:57.206Z,76.39
2019-03-02T14:46:43.903Z,77.24
2019-03-02T14:49:32.926Z,77.23
2019-03-02T14:52:22.848Z,77.81
2019-03-02T14:55:00.001Z,77.13
2019-03-02T14:57:41.742Z,76.41
2019-03-02T15:00:28.800Z,76.20
2019-03-02T15:03:25.059Z,77.06
2019-03-02T15:06:09.255Z,76.56
2019-03-02T15:09:08.798Z,75.70
2019-03-02T15:12:01.666Z,76.12
2019-03-02T15:14:42.552Z,75.71
2019-03-02T15:17:26.142Z,74.84
2019-03-02T15:20:13.642Z,75.55
2019-03-02T15:23:21.506Z,76.12
2019-03-02T15:25:58.062Z,76.27
2019-03-02T15:28:49.880Z,75.56
2019-03-02T15:31:26.528Z,76.27
2019-03-02T15:34:16.405Z,75.98
2019-03-02T15:37:12.402Z,75.69
2019-03-02T15:39:54.980Z,75.22
2019-03-02T15:42:34.681Z,74.81
2019-03-02T15:45:25.103Z,74.14
2019-03-02T15:48:13.732Z,74.63
2019-03-02T15:50:54.516Z,74.07
2019-03-02T15:53:46.529Z,73.76
2019-03-02T15:56:43.805Z,73.61
2019-03-02T15:59:35.964Z,71.81
2019-03-02T16:02:33.523Z,72.20
2019-03-02T16:05:27.435Z,71.79
2019-03-02T16:08:04.714Z,71.81
2019-03-02T16:10:43.601Z,72.28
2019-03-02T16:13:38.011Z,71.01
2019-03-02T16:16:20.996Z,71.39
2019-03-02T16:18:57.516Z,71.74
2019-03-02T16:21:38.753Z,70.22
2019-03-02T16:24:19.959Z,70.73
2019-03-02T16:27:02.216Z,71.04
2019-03-02T16:29:41.969Z,72.63
2019-03-02T16:32:31.963Z,71.24
2019-03-02T16:35:14.244Z,71.23
2019-03-02T16:38:03.762Z,70.52
2019-03-02T16:40:58.207Z,71.24
2019-03-02T16:44:04.550Z,72.21
2019-03-02T16:46:45.811Z,69.81
2019-03-02T16:49:32.188Z,69.70
2019-03-02T16:52:31.593Z,70.23
2019-03-02T16:55:20.501Z,70.71
2019-03-02T16:58:00.139Z,69.93
2019-03-02T17:00:48.644Z,70.44
2019-03-02T17:03:42.385Z,69.17
2019-03-02T17:06:29.728Z,70.25
2019-03-02T17:09:34.628Z,69.74
2019-03-02T17:12:23.690Z,70.18
2019-03-02T17:15:12.303Z,69.54
2019-03-02T17:18:01.001Z,70.13
2019-03-02T17:20:43.380Z,70.83
2019-03-02T17:23:23.972Z,70.97
2019-03-02T17:26:05.051Z,70.57
2019-03-02T17:28:47.594Z,70.45
2019-03-02T17:31:24.003Z,70.65
2019-03-02T17:34:31.844Z,71.99
2019-03-02T17:37:22.673Z,72.27
2019-03-02T17:40:05.737Z,72.81
2019-03-02T17:42:44.921Z,72.61
2019-03-02T17:45:22.179Z,72.07
2019-03-02T17:48:17.047Z,72.55
2019-03-02T17:51:06.869Z,72.96
2019-03-02T17:53:48.816Z,73.67
2019-03-02T17:56:37.079Z,73.51
2019-03-02T17:59:20.927Z,74.56
2019-03-02T18:02:09.750Z,74.17
2019-03-02T18:04:46.682Z,74.51
2019-03-02T18:07:38.568Z,74.72
2019-03-02T18:10:29.447Z,75.05
2019-03-02T18:13:13.526Z,75.75
2019-03-02T18:16:05.678Z,76.01
2019-03-02T18:18:34.022Z,76.16
2019-03-02T18:21:05.500Z,76.31
2019-03-02T18:23:36.713Z,76.64
2019-03-02T18:26:11.120Z,77.11
2019-03-02T18:28:42.076Z,77.54
2019-03-02T18:31:16.153Z,78.78
2019-03-02T18:33:49.537Z,79.30
2019-03-02T18:36:20.479Z,79.30
2019-03-02T18:38:51.823Z,79.56
2019-03-02T18:41:22.946Z,79.72
2019-03-02T18:43:54.232Z,80.01
2019-03-02T18:46:25.102Z,79.97
2019-03-02T18:49:11.530Z,80.48
2019-03-02T18:51:52.799Z,80.25
2019-03-02T18:54:24.159Z,80.48
2019-03-02T18:56:55.190Z,80.62
2019-03-02T18:59:26.050Z,80.75
2019-03-02T19:01:57.012Z,80.70
2019-03-02T19:04:33.693Z,81.32
2019-03-02T19:07:04.966Z,81.61
2019-03-02T19:09:35.830Z,82.06
2019-03-02T19:12:06.715Z,82.07
2019-03-02T19:14:37.506Z,82.61
2019-03-02T19:17:09.478Z,83.47
2019-03-02T19:19:40.344Z,83.34
2019-03-02T19:22:11.325Z,83.50
2019-03-02T19:24:42.503Z,83.78
2019-03-02T19:27:13.879Z,83.71
2019-03-02T19:29:44.894Z,83.91
2019-03-02T19:32:15.695Z,84.32
2019-03-02T19:34:47.932Z,84.93
2019-03-02T19:37:18.962Z,85.05
2019-03-02T19:39:50.048Z,85.68
2019-03-02T19:42:21.145Z,85.48
2019-03-02T19:44:52.002Z,85.57
2019-03-02T19:47:22.866Z,85.76
2019-03-02T19:49:53.889Z,85.61
2019-03-02T19:52:24.767Z,85.64
2019-03-02T19:54:55.787Z,86.34
2019-03-02T19:57:27.054Z,86.29
2019-03-02T19:59:57.841Z,86.43
2019-03-02T20:02:28.636Z,86.60
2019-03-02T20:04:59.509Z,86.60
2019-03-02T20:07:30.678Z,86.86
2019-03-02T20:10:01.766Z,86.71
2019-03-02T20:12:35.156Z,86.81
2019-03-02T20:15:08.317Z,87.11
2019-03-02T20:17:39.225Z,87.14
2019-03-02T20:20:11.739Z,86.92
2019-03-02T20:22:43.285Z,87.45
2019-03-02T20:25:14.781Z,87.05
2019-03-02T20:27:46.937Z,87.30
2019-03-02T20:30:18.683Z,87.81
2019-03-02T20:32:50.938Z,88.16
2019-03-02T20:35:22.590Z,89.42
2019-03-02T20:37:53.692Z,90.15
2019-03-02T20:40:24.743Z,90.35
2019-03-02T20:42:56.013Z,90.72
2019-03-02T20:45:27.055Z,91.07
2019-03-02T20:47:58.298Z,92.68
2019-03-02T20:50:29.081Z,93.50
2019-03-02T20:52:59.947Z,93.52
2019-03-02T20:55:31.062Z,93.23
2019-03-02T20:58:02.081Z,93.62
2019-03-02T21:00:33.247Z,93.30
2019-03-02T21:03:04.598Z,93.76
2019-03-02T21:05:36.162Z,93.68
2019-03-02T21:08:07.226Z,93.17
2019-03-02T21:10:38.101Z,92.98
2019-03-02T21:13:09.040Z,92.46
2019-03-02T21:15:40.612Z,92.90
2019-03-02T21:18:11.534Z,92.56
2019-03-02T21:20:42.615Z,92.15
2019-03-02T21:23:13.564Z,92.01
2019-03-02T21:25:44.989Z,92.42
2019-03-02T21:28:16.260Z,92.60
2019-03-02T21:30:47.342Z,92.54
2019-03-02T21:33:18.453Z,92.67
2019-03-02T21:35:49.301Z,92.48
2019-03-02T21:38:21.167Z,92.60
2019-03-02T21:40:51.948Z,92.07
2019-03-02T21:43:22.754Z,92.22
2019-03-02T21:45:53.663Z,91.99
2019-03-02T21:48:25.146Z,92.68
2019-03-02T21:50:56.298Z,92.17
2019-03-02T21:53:27.722Z,92.36
2019-03-02T21:55:59.054Z,92.10
2019-03-02T21:58:29.939Z,91.90
2019-03-02T22:01:01.018Z,92.21
2019-03-02T22:03:32.603Z,92.14
2019-03-02T22:06:03.490Z,91.94
2019-03-02T22:08:35.675Z,92.09
2019-03-02T22:11:08.841Z,92.18
2019-03-02T22:13:39.643Z,91.92
2019-03-02T22:16:10.911Z,92.08
2019-03-02T22:18:42.274Z,92.10
2019-03-02T22:21:13.547Z,92.09
2019-03-02T22:23:44.594Z,92.09
2019-03-02T22:26:15.608Z,92.13
2019-03-02T22:28:46.655Z,91.96
2019-03-02T22:31:17.517Z,91.79
2019-03-02T22:33:48.407Z,92.00
2019-03-02T22:36:19.177Z,92.01
2019-03-02T22:38:51.179Z,92.10
2019-03-02T22:41:22.034Z,92.11
2019-03-02T22:43:52.905Z,91.91
2019-03-02T22:46:23.703Z,92.32
2019-03-02T22:48:54.724Z,92.01
2019-03-02T22:51:25.510Z,91.60
2019-03-02T22:53:56.671Z,91.47
2019-03-02T22:56:27.471Z,91.48
2019-03-02T22:58:57.774Z,91.71
2019-03-02T23:01:41.104Z,91.61
2019-03-02T23:04:12.462Z,91.18
2019-03-02T23:06:43.417Z,91.21
2019-03-02T23:09:14.635Z,90.71
2019-03-02T23:11:45.559Z,90.43
2019-03-02T23:14:16.501Z,90.39
2019-03-02T23:16:47.356Z,90.28
2019-03-02T23:19:18.277Z,90.38
2019-03-02T23:21:50.051Z,90.33
2019-03-02T23:24:21.199Z,90.01
2019-03-02T23:26:52.689Z,89.66
2019-03-02T23:29:23.602Z,89.79
2019-03-02T23:31:54.455Z,89.86
2019-03-02T23:34:25.573Z,89.40
2019-03-02T23:36:56.350Z,89.66
2019-03-02T23:39:27.562Z,88.80
2019-03-02T23:41:58.672Z,88.76
2019-03-02T23:44:30.765Z,89.10
2019-03-02T23:47:01.516Z,88.63
2019-03-02T23:49:32.790Z,88.66
2019-03-02T23:52:03.648Z,88.81
2019-03-02T23:54:34.967Z,88.63
2019-03-02T23:57:05.887Z,88.76
2019-03-02T23:59:37.420Z,89.04
